Time;durP1;ratioP1;P1;durP2;ratioP2;P2;SDS_P1;SDS_P2;PMS_P1;PMS_P2;Temp;Humidity;BMP_temperature;BMP_pressure;BME280_temperature;BME280_humidity;BME280_pressure;Samples;Min_cycle;Max_cycle;Signal;HPM_P1;HPM_P2
2022/07/23 00:01:30;;;;;;;;;;;27.30;56.50;;;;;;4996857;28;19961;-77
2022/07/23 00:03:57;;;;;;;;;;;27.30;56.70;;;;;;4996484;28;20444;-77
2022/07/23 00:06:23;;;;;;;;;;;27.30;56.80;;;;;;4996818;28;20348;-77
2022/07/23 00:08:50;;;;;;;;;;;27.30;57.10;;;;;;4996454;28;19973;-77
2022/07/23 00:11:17;;;;;;;;;;;27.30;57.40;;;;;;4996631;28;19932;-76
2022/07/23 00:13:44;;;;;;;;;;;27.30;57.40;;;;;;4996284;28;20379;-76
2022/07/23 00:16:10;;;;;;;;;;;27.30;57.40;;;;;;4996556;28;19926;-77
2022/07/23 00:18:38;;;;;;;;;;;27.30;57.50;;;;;;4996143;28;19931;-77
2022/07/23 00:21:05;;;;;;;;;;;27.30;57.60;;;;;;4996165;28;20286;-77
2022/07/23 00:23:32;;;;;;;;;;;27.30;57.80;;;;;;4996121;28;20393;-77
2022/07/23 00:25:58;;;;;;;;;;;27.30;58.00;;;;;;4995256;28;20395;-77
2022/07/23 00:28:25;;;;;;;;;;;27.30;58.10;;;;;;4996274;28;20092;-77
2022/07/23 00:30:52;;;;;;;;;;;27.30;58.30;;;;;;4996240;28;20304;-77
2022/07/23 00:33:19;;;;;;;;;;;27.30;58.40;;;;;;4995937;28;20378;-77
2022/07/23 00:35:47;;;;;;;;;;;27.30;58.60;;;;;;4996198;28;19926;-77
2022/07/23 00:38:13;;;;;;;;;;;27.30;58.70;;;;;;4995778;28;19925;-77
2022/07/23 00:40:40;;;;;;;;;;;27.30;58.80;;;;;;4996134;28;20008;-77
2022/07/23 00:43:07;;;;;;;;;;;27.30;59.00;;;;;;4996041;28;19926;-77
2022/07/23 00:45:34;;;;;;;;;;;27.30;59.10;;;;;;4995991;28;20008;-77
2022/07/23 00:48:01;;;;;;;;;;;27.30;59.30;;;;;;4996120;28;19925;-77
2022/07/23 00:50:28;;;;;;;;;;;27.30;59.40;;;;;;4995539;28;20278;-77
2022/07/23 00:52:56;;;;;;;;;;;27.20;59.50;;;;;;4995902;28;19926;-77
2022/07/23 00:55:23;;;;;;;;;;;27.30;59.70;;;;;;4995831;28;19932;-77
2022/07/23 00:57:50;;;;;;;;;;;27.20;59.80;;;;;;4995746;28;19932;-77
2022/07/23 01:00:18;;;;;;;;;;;27.30;60.00;;;;;;4995692;28;19961;-77
2022/07/23 01:02:45;;;;;;;;;;;27.30;60.10;;;;;;4995359;28;19933;-77
2022/07/23 01:05:12;;;;;;;;;;;27.30;60.20;;;;;;4995326;28;19934;-77
2022/07/23 01:07:42;;;;;;;;;;;27.20;60.40;;;;;;4996043;28;19926;-77
2022/07/23 01:12:50;;;;;;;;;;;27.20;60.70;;;;;;4994993;28;20023;-77
2022/07/23 01:15:17;;;;;;;;;;;27.20;60.80;;;;;;4995476;28;19933;-77
2022/07/23 01:17:44;;;;;;;;;;;27.20;61.70;;;;;;4995325;28;19968;-77
2022/07/23 01:20:10;;;;;;;;;;;27.20;61.00;;;;;;4995383;28;19972;-77
2022/07/23 01:22:38;;;;;;;;;;;27.20;61.20;;;;;;4994995;28;19936;-78
2022/07/23 01:25:06;;;;;;;;;;;27.20;61.30;;;;;;4996102;28;19926;-77
2022/07/23 01:27:32;;;;;;;;;;;27.20;61.50;;;;;;4995248;28;20282;-77
2022/07/23 01:30:00;;;;;;;;;;;27.20;61.60;;;;;;4995073;28;19992;-77
2022/07/23 01:32:27;;;;;;;;;;;27.20;61.70;;;;;;4995127;28;19932;-77
2022/07/23 01:34:55;;;;;;;;;;;27.20;61.80;;;;;;4995130;28;19965;-76
2022/07/23 01:37:21;;;;;;;;;;;27.20;62.00;;;;;;4994988;28;19938;-77
2022/07/23 01:39:49;;;;;;;;;;;27.20;62.10;;;;;;4994997;28;19926;-77
2022/07/23 01:42:16;;;;;;;;;;;27.20;62.30;;;;;;4994996;28;19925;-77
2022/07/23 01:44:42;;;;;;;;;;;27.20;62.40;;;;;;4994904;28;19936;-77
2022/07/23 01:47:09;;;;;;;;;;;27.20;62.70;;;;;;4994914;28;20020;-77
2022/07/23 01:49:36;;;;;;;;;;;27.20;62.80;;;;;;4994812;28;20293;-77
2022/07/23 01:52:06;;;;;;;;;;;27.20;62.80;;;;;;4994800;28;19929;-77
2022/07/23 01:54:34;;;;;;;;;;;27.20;62.80;;;;;;4994620;28;20429;-77
2022/07/23 01:57:02;;;;;;;;;;;27.20;62.80;;;;;;4994801;28;20012;-77
2022/07/23 01:59:29;;;;;;;;;;;27.20;62.80;;;;;;4994730;28;19926;-77
2022/07/23 02:01:55;;;;;;;;;;;27.20;62.80;;;;;;4994782;28;19925;-77
2022/07/23 02:04:23;;;;;;;;;;;27.20;62.80;;;;;;4994817;28;19977;-77
2022/07/23 02:06:50;;;;;;;;;;;27.20;62.80;;;;;;4994721;28;19965;-78
2022/07/23 02:09:17;;;;;;;;;;;27.20;63.00;;;;;;4994273;28;20012;-77
2022/07/23 02:11:44;;;;;;;;;;;27.20;63.20;;;;;;4994589;28;19952;-77
2022/07/23 02:14:12;;;;;;;;;;;27.20;63.40;;;;;;4994298;28;20287;-77
2022/07/23 02:16:38;;;;;;;;;;;27.20;63.40;;;;;;4994597;28;19925;-77
2022/07/23 02:19:05;;;;;;;;;;;27.20;63.50;;;;;;4994207;28;20425;-77
2022/07/23 02:21:32;;;;;;;;;;;27.20;63.70;;;;;;4994233;28;20021;-77
2022/07/23 02:23:58;;;;;;;;;;;27.20;63.80;;;;;;4994169;28;20385;-78
2022/07/23 02:26:25;;;;;;;;;;;27.20;63.90;;;;;;4994528;28;19988;-77
2022/07/23 02:28:52;;;;;;;;;;;27.20;63.90;;;;;;4994442;28;19930;-77
2022/07/23 02:31:20;;;;;;;;;;;27.20;64.00;;;;;;4994377;28;19926;-77
2022/07/23 02:33:47;;;;;;;;;;;27.20;64.10;;;;;;4994137;28;19932;-77
2022/07/23 02:36:14;;;;;;;;;;;27.20;64.20;;;;;;4994063;28;20453;-77
2022/07/23 02:38:40;;;;;;;;;;;27.20;64.30;;;;;;4994082;28;20381;-77
2022/07/23 02:41:07;;;;;;;;;;;27.20;64.40;;;;;;4994461;28;20360;-77
2022/07/23 02:43:34;;;;;;;;;;;27.20;64.40;;;;;;4994388;28;19977;-77
2022/07/23 02:46:01;;;;;;;;;;;27.20;64.60;;;;;;4994366;28;19941;-77
2022/07/23 02:48:29;;;;;;;;;;;27.20;64.70;;;;;;4996207;28;19925;-77
2022/07/23 02:50:56;;;;;;;;;;;27.20;64.70;;;;;;4998105;28;19926;-77
2022/07/23 02:53:23;;;;;;;;;;;27.20;64.80;;;;;;4997777;28;20284;-77
2022/07/23 02:55:50;;;;;;;;;;;27.20;64.90;;;;;;4998065;28;20012;-77
2022/07/23 02:58:16;;;;;;;;;;;27.20;65.10;;;;;;4997995;28;19965;-78
2022/07/23 03:00:43;;;;;;;;;;;27.20;65.20;;;;;;4997946;28;19925;-77
2022/07/23 03:03:10;;;;;;;;;;;27.20;65.30;;;;;;4997926;28;19965;-77
2022/07/23 03:05:38;;;;;;;;;;;27.20;65.40;;;;;;4997618;28;19933;-77
2022/07/23 03:08:04;;;;;;;;;;;27.20;65.50;;;;;;4997608;28;19925;-77
2022/07/23 03:10:31;;;;;;;;;;;27.20;65.60;;;;;;4997475;28;19926;-76
2022/07/23 03:12:58;;;;;;;;;;;27.20;65.70;;;;;;4997501;28;19926;-76
2022/07/23 03:15:24;;;;;;;;;;;27.20;65.80;;;;;;4997359;28;19981;-77
2022/07/23 03:17:51;;;;;;;;;;;27.20;66.00;;;;;;4997292;28;19983;-77
2022/07/23 03:20:18;;;;;;;;;;;27.20;66.00;;;;;;4997360;28;19980;-77
2022/07/23 03:22:46;;;;;;;;;;;27.20;66.10;;;;;;4997226;28;20032;-77
2022/07/23 03:25:12;;;;;;;;;;;27.20;66.20;;;;;;4997221;28;20029;-77
2022/07/23 03:27:39;;;;;;;;;;;27.20;66.30;;;;;;4997107;28;19932;-77
2022/07/23 03:30:06;;;;;;;;;;;27.20;66.30;;;;;;4997427;28;19948;-76
2022/07/23 03:32:33;;;;;;;;;;;27.20;66.50;;;;;;4997008;28;20370;-77
2022/07/23 03:35:00;;;;;;;;;;;27.20;66.60;;;;;;4997089;28;20017;-77
2022/07/23 03:37:27;;;;;;;;;;;27.20;66.70;;;;;;4997037;28;19979;-78
2022/07/23 03:39:55;;;;;;;;;;;27.20;66.90;;;;;;4997209;28;20008;-77
2022/07/23 03:42:21;;;;;;;;;;;27.20;66.90;;;;;;4996903;28;20440;-77
2022/07/23 03:44:48;;;;;;;;;;;27.20;67.00;;;;;;4996903;28;20023;-77
2022/07/23 03:47:16;;;;;;;;;;;27.20;67.10;;;;;;4996827;28;20416;-76
2022/07/23 03:49:43;;;;;;;;;;;27.20;67.20;;;;;;4996713;28;20286;-77
2022/07/23 03:52:10;;;;;;;;;;;27.20;67.30;;;;;;4996905;28;19926;-77
2022/07/23 03:54:37;;;;;;;;;;;27.20;67.40;;;;;;4997058;28;20020;-77
2022/07/23 03:57:05;;;;;;;;;;;27.20;67.50;;;;;;4996948;28;19925;-77
2022/07/23 03:59:31;;;;;;;;;;;27.20;67.60;;;;;;4995625;28;19972;-77
2022/07/23 04:01:58;;;;;;;;;;;27.20;67.70;;;;;;4996858;28;20021;-77
2022/07/23 04:04:25;;;;;;;;;;;27.20;67.80;;;;;;4996498;28;20308;-77
2022/07/23 04:06:51;;;;;;;;;;;27.20;67.90;;;;;;4996463;28;20411;-78
2022/07/23 04:09:18;;;;;;;;;;;27.20;68.00;;;;;;4996215;28;20365;-77
2022/07/23 04:11:45;;;;;;;;;;;27.20;68.10;;;;;;4996284;28;20450;-77
2022/07/23 04:14:13;;;;;;;;;;;27.20;68.20;;;;;;4996356;28;20465;-77
2022/07/23 04:16:39;;;;;;;;;;;27.20;68.30;;;;;;4996641;28;19926;-77
2022/07/23 04:19:06;;;;;;;;;;;27.20;68.50;;;;;;4996485;28;19926;-77
2022/07/23 04:21:33;;;;;;;;;;;27.20;68.60;;;;;;4996184;28;20400;-77
2022/07/23 04:23:59;;;;;;;;;;;27.20;68.70;;;;;;4996098;28;20378;-77
2022/07/23 04:26:26;;;;;;;;;;;27.20;68.90;;;;;;4996051;28;20376;-77
2022/07/23 04:28:52;;;;;;;;;;;27.20;68.90;;;;;;4996320;28;20000;-77
2022/07/23 04:31:20;;;;;;;;;;;27.20;68.90;;;;;;4996245;28;19995;-77
2022/07/23 04:33:47;;;;;;;;;;;27.20;69.00;;;;;;4996283;28;19932;-77
2022/07/23 04:36:14;;;;;;;;;;;27.20;68.90;;;;;;4996229;28;19972;-77
2022/07/23 04:38:40;;;;;;;;;;;27.20;68.90;;;;;;4996126;28;19976;-78
2022/07/23 04:41:07;;;;;;;;;;;27.20;68.90;;;;;;4996106;28;19973;-77
2022/07/23 04:43:34;;;;;;;;;;;27.20;68.90;;;;;;4996035;28;19926;-77
2022/07/23 04:46:00;;;;;;;;;;;27.20;68.90;;;;;;4995600;28;19965;-78
2022/07/23 04:48:28;;;;;;;;;;;27.20;69.10;;;;;;4995910;28;19933;-77
2022/07/23 04:50:55;;;;;;;;;;;27.20;69.20;;;;;;4995906;28;19965;-77
2022/07/23 04:53:22;;;;;;;;;;;27.20;69.30;;;;;;4995740;28;20013;-77
2022/07/23 04:55:48;;;;;;;;;;;27.20;69.50;;;;;;4995805;28;19975;-77
2022/07/23 04:58:15;;;;;;;;;;;27.20;69.50;;;;;;4995718;28;19972;-77
2022/07/23 05:00:42;;;;;;;;;;;27.20;69.60;;;;;;4995713;28;19926;-77
2022/07/23 05:03:08;;;;;;;;;;;27.20;69.70;;;;;;4995327;28;19926;-77
2022/07/23 05:05:36;;;;;;;;;;;27.20;69.80;;;;;;4995468;28;20400;-77
2022/07/23 05:08:03;;;;;;;;;;;27.20;69.90;;;;;;4995541;28;19925;-77
2022/07/23 05:10:30;;;;;;;;;;;27.20;70.00;;;;;;4994895;28;19937;-77
2022/07/23 05:12:56;;;;;;;;;;;27.20;70.10;;;;;;4995125;28;19932;-77
2022/07/23 05:15:24;;;;;;;;;;;27.20;70.10;;;;;;4995482;28;20293;-76
2022/07/23 05:17:50;;;;;;;;;;;27.20;70.30;;;;;;4995318;28;19932;-77
2022/07/23 05:20:17;;;;;;;;;;;27.20;70.30;;;;;;4995029;28;19932;-77
2022/07/23 05:22:45;;;;;;;;;;;27.20;70.40;;;;;;4995259;28;20008;-77
2022/07/23 05:25:12;;;;;;;;;;;27.20;70.40;;;;;;4995302;28;19925;-77
2022/07/23 05:27:38;;;;;;;;;;;27.20;70.40;;;;;;4995178;28;19926;-78
2022/07/23 05:30:05;;;;;;;;;;;27.10;70.40;;;;;;4995221;28;19932;-77
2022/07/23 05:32:32;;;;;;;;;;;27.10;70.50;;;;;;4995111;28;20032;-77
2022/07/23 05:34:59;;;;;;;;;;;27.20;70.70;;;;;;4995183;28;19926;-77
2022/07/23 05:37:26;;;;;;;;;;;27.20;70.80;;;;;;4994796;28;20449;-77
2022/07/23 05:39:54;;;;;;;;;;;27.10;70.80;;;;;;4994699;28;20404;-77
2022/07/23 05:42:20;;;;;;;;;;;27.20;70.90;;;;;;4994968;28;19948;-77
2022/07/23 05:44:47;;;;;;;;;;;27.20;71.00;;;;;;4994952;28;20037;-77
2022/07/23 05:47:13;;;;;;;;;;;27.20;71.00;;;;;;4994903;28;19961;-77
2022/07/23 05:49:40;;;;;;;;;;;27.20;71.10;;;;;;4994839;28;19926;-77
2022/07/23 05:52:07;;;;;;;;;;;27.20;71.20;;;;;;4994806;28;19926;-78
2022/07/23 05:54:35;;;;;;;;;;;27.10;71.20;;;;;;4994811;28;20012;-78
2022/07/23 05:57:03;;;;;;;;;;;27.10;71.20;;;;;;4994567;28;20012;-78
2022/07/23 05:59:29;;;;;;;;;;;27.10;71.30;;;;;;4994837;28;20013;-78
2022/07/23 06:01:56;;;;;;;;;;;27.10;71.30;;;;;;4994490;28;19929;-77
2022/07/23 06:04:23;;;;;;;;;;;27.10;71.40;;;;;;4994431;28;19980;-77
2022/07/23 06:06:50;;;;;;;;;;;27.10;71.40;;;;;;4994339;28;19977;-78
2022/07/23 06:09:16;;;;;;;;;;;27.10;71.50;;;;;;4994156;28;20405;-77
2022/07/23 06:11:43;;;;;;;;;;;27.10;71.50;;;;;;4994698;28;19970;-76
2022/07/23 06:14:11;;;;;;;;;;;27.10;71.60;;;;;;4996657;28;20046;-78
2022/07/23 06:16:37;;;;;;;;;;;27.10;71.70;;;;;;4998806;28;20008;-79
2022/07/23 06:19:04;;;;;;;;;;;27.10;71.70;;;;;;4997610;28;20020;-78
2022/07/23 06:21:31;;;;;;;;;;;27.10;71.80;;;;;;4998862;28;20009;-79
2022/07/23 06:23:57;;;;;;;;;;;27.10;71.90;;;;;;5002468;28;19926;-79
2022/07/23 06:26:24;;;;;;;;;;;27.20;72.10;;;;;;5008637;28;19981;-79
2022/07/23 06:28:51;;;;;;;;;;;27.10;72.00;;;;;;5002714;28;19980;-79
2022/07/23 06:31:19;;;;;;;;;;;27.20;72.20;;;;;;5000674;28;20412;-79
2022/07/23 06:33:47;;;;;;;;;;;27.10;72.20;;;;;;5001572;28;19929;-80
2022/07/23 06:36:14;;;;;;;;;;;27.20;72.40;;;;;;5001191;28;20378;-79
2022/07/23 06:38:41;;;;;;;;;;;27.20;72.50;;;;;;5001123;28;20407;-79
2022/07/23 06:41:07;;;;;;;;;;;27.20;72.60;;;;;;5002358;28;20289;-79
2022/07/23 06:43:34;;;;;;;;;;;27.20;72.60;;;;;;5003089;28;19984;-79
2022/07/23 06:46:01;;;;;;;;;;;27.20;72.70;;;;;;5002862;28;20429;-79
2022/07/23 06:48:29;;;;;;;;;;;27.20;72.80;;;;;;5002913;28;20440;-80
2022/07/23 06:50:55;;;;;;;;;;;27.20;72.90;;;;;;5003954;28;20020;-79
2022/07/23 06:53:22;;;;;;;;;;;27.20;73.00;;;;;;5001151;28;19985;-79
2022/07/23 06:55:49;;;;;;;;;;;27.20;73.00;;;;;;5000237;28;19933;-79
2022/07/23 06:58:15;;;;;;;;;;;27.20;73.10;;;;;;5000310;28;19969;-79
2022/07/23 07:00:42;;;;;;;;;;;27.20;73.20;;;;;;5000079;28;19926;-79
2022/07/23 07:03:09;;;;;;;;;;;27.20;73.30;;;;;;4999859;28;19925;-79
2022/07/23 07:05:37;;;;;;;;;;;27.20;73.40;;;;;;5000460;28;19973;-79
2022/07/23 07:08:04;;;;;;;;;;;27.20;73.50;;;;;;5000693;28;20006;-79
2022/07/23 07:10:30;;;;;;;;;;;27.20;73.70;;;;;;5001123;28;20347;-78
2022/07/23 07:12:57;;;;;;;;;;;27.20;73.80;;;;;;5001351;28;19994;-79
2022/07/23 07:15:24;;;;;;;;;;;27.20;73.90;;;;;;5000542;28;20022;-78
2022/07/23 07:17:50;;;;;;;;;;;27.20;73.90;;;;;;5001164;28;20440;-79
2022/07/23 07:20:17;;;;;;;;;;;27.20;74.10;;;;;;5000441;28;20009;-79
2022/07/23 07:22:45;;;;;;;;;;;27.20;74.20;;;;;;5000247;28;19925;-79
2022/07/23 07:25:13;;;;;;;;;;;27.20;74.30;;;;;;5000949;28;20021;-79
2022/07/23 07:27:39;;;;;;;;;;;27.20;74.40;;;;;;5000484;28;19953;-79
2022/07/23 07:30:07;;;;;;;;;;;27.20;74.50;;;;;;5026173;23;19985;-86
2022/07/23 07:32:34;;;;;;;;;;;27.20;74.60;;;;;;5012860;28;19979;-86
2022/07/23 07:35:00;;;;;;;;;;;27.20;74.80;;;;;;5010932;28;19972;-88
2022/07/23 07:37:27;;;;;;;;;;;27.20;74.80;;;;;;5009152;28;19976;-88
2022/07/23 07:39:55;;;;;;;;;;;27.20;74.90;;;;;;5009718;28;19930;-88
2022/07/23 07:42:22;;;;;;;;;;;27.20;75.00;;;;;;4998534;28;20029;-87
2022/07/23 07:44:48;;;;;;;;;;;27.20;74.90;;;;;;5007961;28;19965;-87
2022/07/23 07:47:16;;;;;;;;;;;27.20;74.90;;;;;;5004719;28;19969;-87
2022/07/23 07:49:43;;;;;;;;;;;27.20;74.90;;;;;;5001044;28;19926;-88
2022/07/23 07:52:09;;;;;;;;;;;27.20;74.90;;;;;;4997983;28;20016;-90
2022/07/23 07:54:36;;;;;;;;;;;27.20;75.00;;;;;;4998726;28;19973;-88
2022/07/23 07:57:04;;;;;;;;;;;27.20;75.30;;;;;;4998705;28;19933;-88
2022/07/23 07:59:31;;;;;;;;;;;27.20;75.60;;;;;;4997358;28;20461;-85
2022/07/23 08:01:57;;;;;;;;;;;27.20;75.80;;;;;;5000836;28;20440;-84
2022/07/23 08:04:24;;;;;;;;;;;27.20;76.00;;;;;;5000287;28;20330;-84
2022/07/23 08:06:51;;;;;;;;;;;27.20;76.10;;;;;;5002712;28;20016;-85
2022/07/23 08:09:17;;;;;;;;;;;27.20;76.40;;;;;;5004848;28;19968;-84
2022/07/23 08:11:44;;;;;;;;;;;27.20;76.50;;;;;;5003530;28;20016;-84
2022/07/23 08:14:12;;;;;;;;;;;27.20;76.50;;;;;;5003890;28;19989;-85
2022/07/23 08:16:38;;;;;;;;;;;27.20;76.70;;;;;;4997561;28;20012;-85
2022/07/23 08:19:05;;;;;;;;;;;27.20;76.90;;;;;;4997913;28;20354;-84
2022/07/23 08:21:32;;;;;;;;;;;27.20;77.00;;;;;;4999432;28;20370;-85
2022/07/23 08:23:58;;;;;;;;;;;27.20;77.20;;;;;;4998410;28;20005;-86
2022/07/23 08:26:25;;;;;;;;;;;27.20;77.40;;;;;;5000966;28;19950;-86
2022/07/23 08:28:52;;;;;;;;;;;27.20;77.60;;;;;;4998530;28;20008;-86
2022/07/23 08:31:20;;;;;;;;;;;27.20;77.80;;;;;;4999456;28;19985;-85
2022/07/23 08:33:46;;;;;;;;;;;27.20;78.00;;;;;;5002885;28;19926;-82
2022/07/23 08:36:13;;;;;;;;;;;27.20;78.20;;;;;;5006162;28;19965;-80
2022/07/23 08:38:40;;;;;;;;;;;27.20;78.40;;;;;;5009183;28;19961;-83
2022/07/23 08:41:08;;;;;;;;;;;27.20;78.50;;;;;;5012314;28;19957;-84
2022/07/23 08:43:35;;;;;;;;;;;27.20;78.50;;;;;;5010021;28;19968;-82
2022/07/23 08:46:03;;;;;;;;;;;27.20;78.70;;;;;;5010512;28;19972;-82
2022/07/23 08:48:32;;;;;;;;;;;27.20;78.70;;;;;;5010282;28;20385;-83
2022/07/23 08:51:00;;;;;;;;;;;27.20;78.80;;;;;;5009272;28;19965;-84
2022/07/23 08:53:27;;;;;;;;;;;27.20;78.90;;;;;;5005858;28;20016;-84
2022/07/23 08:55:55;;;;;;;;;;;27.20;79.00;;;;;;5005596;28;20429;-85
2022/07/23 08:58:22;;;;;;;;;;;27.20;79.10;;;;;;5003165;28;19973;-81
2022/07/23 09:00:49;;;;;;;;;;;27.20;79.20;;;;;;5006510;28;19933;-83
2022/07/23 09:03:17;;;;;;;;;;;27.20;79.30;;;;;;5007842;28;20371;-83
2022/07/23 09:05:45;;;;;;;;;;;27.20;79.40;;;;;;5004886;28;19976;-84
2022/07/23 09:08:13;;;;;;;;;;;27.20;79.50;;;;;;5005721;28;19965;-85
2022/07/23 13:07:18;;;;;;;;;;;27.20;74.90;;;;;;5791306;23;20377;-80
2022/07/23 13:09:45;;;;;;;;;;;27.20;74.90;;;;;;4981407;28;20300;-80
2022/07/23 13:12:12;;;;;;;;;;;27.20;74.90;;;;;;4980463;28;19961;-81
2022/07/23 13:14:39;;;;;;;;;;;27.20;74.90;;;;;;4979923;28;19926;-80
2022/07/23 13:17:05;;;;;;;;;;;27.20;74.90;;;;;;4980991;28;19930;-79
2022/07/23 13:19:32;;;;;;;;;;;27.30;75.00;;;;;;4979642;28;19981;-79
2022/07/23 13:21:59;;;;;;;;;;;27.20;74.90;;;;;;4979108;28;19926;-79
2022/07/23 13:24:27;;;;;;;;;;;27.20;74.90;;;;;;4978177;28;20028;-78
2022/07/23 13:26:53;;;;;;;;;;;27.30;75.00;;;;;;4978318;28;19926;-80
2022/07/23 13:29:20;;;;;;;;;;;27.30;75.00;;;;;;4978275;28;20394;-79
2022/07/23 13:31:47;;;;;;;;;;;27.30;74.90;;;;;;4980020;28;19926;-80
2022/07/23 13:34:14;;;;;;;;;;;27.30;75.00;;;;;;4979648;28;20017;-80
2022/07/23 13:36:43;;;;;;;;;;;27.30;75.00;;;;;;4978908;28;20381;-79
2022/07/23 13:39:09;;;;;;;;;;;27.30;75.00;;;;;;4978946;28;19926;-79
2022/07/23 13:41:38;;;;;;;;;;;27.30;75.00;;;;;;4978311;28;20381;-82
2022/07/23 13:44:05;;;;;;;;;;;27.30;75.00;;;;;;4978907;28;20013;-82
2022/07/23 13:46:31;;;;;;;;;;;27.30;75.00;;;;;;4978432;28;19958;-82
2022/07/23 13:48:58;;;;;;;;;;;27.30;75.00;;;;;;4977862;28;19926;-84
2022/07/23 13:51:25;;;;;;;;;;;27.40;75.10;;;;;;4977910;28;19933;-83
2022/07/23 13:53:52;;;;;;;;;;;27.40;75.10;;;;;;4978214;28;19926;-82
2022/07/23 13:56:19;;;;;;;;;;;27.40;75.10;;;;;;4981116;28;19928;-82
2022/07/23 13:58:47;;;;;;;;;;;27.40;75.10;;;;;;4984762;28;19930;-82
2022/07/23 14:01:15;;;;;;;;;;;27.40;75.10;;;;;;4984855;28;19930;-82
2022/07/23 14:03:42;;;;;;;;;;;27.40;75.10;;;;;;4984321;28;19927;-82
2022/07/23 14:06:09;;;;;;;;;;;27.40;75.10;;;;;;4986320;28;19926;-80
2022/07/23 14:08:36;;;;;;;;;;;27.40;75.10;;;;;;4983172;28;19975;-81
2022/07/23 14:11:03;;;;;;;;;;;27.40;75.10;;;;;;4982566;28;20322;-80
2022/07/23 14:13:30;;;;;;;;;;;27.40;75.10;;;;;;4976301;28;19936;-82
2022/07/23 14:15:58;;;;;;;;;;;27.50;75.20;;;;;;4975960;28;19926;-83
2022/07/23 14:18:24;;;;;;;;;;;27.40;75.10;;;;;;4976072;28;19926;-81
2022/07/23 14:20:51;;;;;;;;;;;27.40;75.10;;;;;;4976958;28;19933;-82
2022/07/23 14:23:18;;;;;;;;;;;27.40;75.10;;;;;;4976579;28;20458;-81
2022/07/23 14:25:44;;;;;;;;;;;27.40;75.10;;;;;;4976200;28;20008;-83
2022/07/23 14:28:12;;;;;;;;;;;27.40;75.10;;;;;;4975904;28;19961;-83
2022/07/23 14:30:39;;;;;;;;;;;27.50;75.40;;;;;;4975475;28;20295;-84
2022/07/23 14:33:07;;;;;;;;;;;27.50;75.40;;;;;;4978249;28;19961;-83
2022/07/23 14:35:33;;;;;;;;;;;27.40;75.40;;;;;;4980616;28;19932;-82
2022/07/23 14:38:01;;;;;;;;;;;27.50;75.50;;;;;;4980475;28;19993;-83
2022/07/23 14:40:28;;;;;;;;;;;27.40;75.40;;;;;;4978977;28;19974;-82
2022/07/23 14:42:55;;;;;;;;;;;27.50;75.50;;;;;;4981751;28;19926;-82
2022/07/23 14:45:22;;;;;;;;;;;27.40;75.50;;;;;;4981498;28;20025;-85
2022/07/23 14:47:49;;;;;;;;;;;27.40;75.50;;;;;;4981765;28;19928;-83
2022/07/23 14:50:17;;;;;;;;;;;27.40;75.50;;;;;;4983275;28;19993;-84
2022/07/23 14:52:44;;;;;;;;;;;27.40;75.60;;;;;;4982562;28;19966;-84
2022/07/23 14:55:10;;;;;;;;;;;27.40;75.50;;;;;;4979117;28;19932;-84
2022/07/23 14:57:37;;;;;;;;;;;27.40;75.60;;;;;;4979199;28;20450;-83
2022/07/23 15:00:05;;;;;;;;;;;27.40;75.60;;;;;;4978925;28;20365;-83
2022/07/23 15:02:32;;;;;;;;;;;27.50;75.70;;;;;;4979112;28;19976;-84
2022/07/23 15:05:00;;;;;;;;;;;27.40;75.70;;;;;;4978877;28;19932;-84
2022/07/23 15:07:29;;;;;;;;;;;27.40;75.80;;;;;;4978889;28;19930;-84
2022/07/23 15:09:55;;;;;;;;;;;27.40;75.80;;;;;;4979112;28;19932;-84
2022/07/23 15:12:22;;;;;;;;;;;27.40;75.80;;;;;;4979989;28;20455;-84
2022/07/23 15:14:48;;;;;;;;;;;27.40;75.80;;;;;;4979767;28;19926;-84
2022/07/23 15:17:15;;;;;;;;;;;27.40;75.90;;;;;;4978947;28;19969;-84
2022/07/23 15:19:42;;;;;;;;;;;27.40;75.90;;;;;;4978639;28;19932;-84
2022/07/23 15:22:08;;;;;;;;;;;27.40;75.90;;;;;;4978863;28;20013;-84
2022/07/23 15:24:36;;;;;;;;;;;27.40;75.90;;;;;;4979523;28;20028;-84
2022/07/23 15:27:03;;;;;;;;;;;27.40;76.00;;;;;;4978849;28;19932;-84
2022/07/23 15:29:30;;;;;;;;;;;27.40;76.00;;;;;;4978501;28;20389;-84
2022/07/23 15:31:56;;;;;;;;;;;27.40;76.10;;;;;;4978234;28;20282;-84
2022/07/23 15:34:23;;;;;;;;;;;27.40;76.20;;;;;;4978176;28;19925;-84
2022/07/23 15:36:50;;;;;;;;;;;27.40;76.20;;;;;;4979866;28;19933;-84
2022/07/23 15:39:16;;;;;;;;;;;27.40;76.30;;;;;;4978437;28;19957;-84
2022/07/23 15:41:44;;;;;;;;;;;27.40;76.30;;;;;;4978454;28;20034;-84
2022/07/23 15:44:11;;;;;;;;;;;27.40;76.40;;;;;;4978731;28;20020;-84
2022/07/23 15:46:38;;;;;;;;;;;27.40;76.40;;;;;;4978893;28;19936;-84
2022/07/23 15:49:04;;;;;;;;;;;27.40;76.50;;;;;;4981684;28;20033;-83
2022/07/23 15:51:31;;;;;;;;;;;27.40;76.60;;;;;;4980936;28;20049;-83
2022/07/23 15:53:58;;;;;;;;;;;27.40;76.70;;;;;;4979332;28;20020;-84
2022/07/23 15:56:24;;;;;;;;;;;27.40;76.70;;;;;;4979177;28;19969;-84
2022/07/23 15:58:53;;;;;;;;;;;27.40;76.70;;;;;;4979020;28;20033;-84
2022/07/23 16:01:19;;;;;;;;;;;27.40;76.80;;;;;;4977756;28;19926;-84
2022/07/23 16:03:46;;;;;;;;;;;27.40;76.80;;;;;;4977799;28;20025;-84
2022/07/23 16:06:13;;;;;;;;;;;27.40;77.60;;;;;;4977704;28;19926;-84
2022/07/23 16:08:40;;;;;;;;;;;27.40;77.00;;;;;;4977584;28;19926;-84
2022/07/23 16:11:07;;;;;;;;;;;27.40;77.00;;;;;;4977241;28;20121;-84
2022/07/23 16:13:33;;;;;;;;;;;27.40;77.10;;;;;;4977396;28;19930;-84
2022/07/23 16:16:04;;;;;;;;;;;27.40;77.10;;;;;;4978680;28;19968;-84
2022/07/23 16:18:30;;;;;;;;;;;27.40;77.30;;;;;;4977711;28;19926;-84
2022/07/23 16:20:57;;;;;;;;;;;27.40;77.30;;;;;;4978447;28;20024;-83
2022/07/23 16:23:24;;;;;;;;;;;27.40;77.40;;;;;;4977419;28;19966;-84
2022/07/23 16:25:51;;;;;;;;;;;27.40;77.40;;;;;;4978228;28;20008;-83
2022/07/23 16:28:17;;;;;;;;;;;27.40;77.60;;;;;;4977479;28;20020;-83
2022/07/23 16:30:44;;;;;;;;;;;27.40;77.70;;;;;;4977037;28;20338;-84
2022/07/23 16:33:12;;;;;;;;;;;27.40;77.80;;;;;;4977536;28;19980;-84
2022/07/23 16:35:39;;;;;;;;;;;27.40;77.90;;;;;;4985873;28;19976;-84
2022/07/23 16:38:06;;;;;;;;;;;27.50;78.10;;;;;;4987764;28;19981;-84
2022/07/23 16:40:33;;;;;;;;;;;27.50;78.20;;;;;;4981895;28;20402;-84
2022/07/23 16:43:00;;;;;;;;;;;27.40;78.20;;;;;;4977342;28;19978;-84
2022/07/23 16:45:26;;;;;;;;;;;27.50;78.40;;;;;;4977212;28;19989;-84
2022/07/23 16:47:53;;;;;;;;;;;27.50;78.50;;;;;;4976914;28;20033;-84
2022/07/23 16:50:22;;;;;;;;;;;27.40;78.50;;;;;;4976671;28;19926;-84
2022/07/23 16:52:48;;;;;;;;;;;27.50;78.70;;;;;;4978155;28;20385;-83
2022/07/23 16:55:15;;;;;;;;;;;27.50;78.80;;;;;;4978499;28;20385;-83
2022/07/23 16:57:42;;;;;;;;;;;27.40;78.90;;;;;;4977934;28;19926;-85
2022/07/23 17:00:10;;;;;;;;;;;27.50;79.10;;;;;;4977323;28;19933;-85
2022/07/23 17:02:37;;;;;;;;;;;27.50;79.30;;;;;;4976280;28;19926;-85
2022/07/23 17:05:05;;;;;;;;;;;27.50;79.40;;;;;;4976451;28;19926;-84
2022/07/23 17:07:33;;;;;;;;;;;27.50;79.60;;;;;;4976062;28;19926;-84
2022/07/23 17:09:59;;;;;;;;;;;27.50;79.70;;;;;;4977087;28;19932;-83
2022/07/23 17:12:26;;;;;;;;;;;27.50;79.90;;;;;;4978536;28;20377;-82
2022/07/23 17:14:53;;;;;;;;;;;27.50;80.10;;;;;;4980379;28;20358;-82
2022/07/23 17:17:19;;;;;;;;;;;27.50;80.30;;;;;;4979649;28;20355;-82
2022/07/23 17:19:46;;;;;;;;;;;27.50;80.50;;;;;;4979570;28;19965;-82
2022/07/23 17:22:13;;;;;;;;;;;27.50;80.70;;;;;;4978986;28;19926;-82
2022/07/23 17:24:41;;;;;;;;;;;27.50;81.10;;;;;;4977823;28;19945;-82
2022/07/23 17:27:08;;;;;;;;;;;27.50;81.10;;;;;;4979928;28;19937;-82
2022/07/23 17:29:34;;;;;;;;;;;27.50;81.80;;;;;;4979515;28;20305;-82
2022/07/23 17:32:01;;;;;;;;;;;27.50;81.10;;;;;;4978622;28;20009;-83
2022/07/23 17:34:28;;;;;;;;;;;27.50;81.40;;;;;;4977560;28;20305;-83
2022/07/23 17:36:55;;;;;;;;;;;27.50;81.70;;;;;;4978863;28;20385;-83
2022/07/23 17:39:21;;;;;;;;;;;27.50;82.00;;;;;;4978298;28;19930;-83
2022/07/23 17:41:50;;;;;;;;;;;27.50;82.20;;;;;;4978426;28;19936;-83
2022/07/23 17:44:17;;;;;;;;;;;27.50;82.40;;;;;;4978741;28;19933;-82
2022/07/23 17:46:44;;;;;;;;;;;27.50;82.70;;;;;;4978033;28;19926;-81
2022/07/23 17:49:11;;;;;;;;;;;27.50;83.00;;;;;;4977708;28;19981;-81
2022/07/23 17:51:38;;;;;;;;;;;27.50;83.20;;;;;;4978110;28;20397;-81
2022/07/23 17:54:06;;;;;;;;;;;27.50;83.60;;;;;;4977358;28;19926;-82
2022/07/23 17:56:33;;;;;;;;;;;27.60;83.90;;;;;;4977642;28;19983;-81
2022/07/23 17:59:01;;;;;;;;;;;27.60;84.60;;;;;;4977759;28;19980;-81
2022/07/23 18:01:28;;;;;;;;;;;27.60;84.50;;;;;;4978109;28;20016;-82
2022/07/23 18:03:55;;;;;;;;;;;27.60;84.80;;;;;;4978216;28;19926;-81
2022/07/23 18:06:22;;;;;;;;;;;27.60;85.10;;;;;;4977264;28;20014;-81
2022/07/23 18:08:48;;;;;;;;;;;27.60;85.30;;;;;;4977325;28;20061;-82
2022/07/23 18:11:15;;;;;;;;;;;27.50;85.40;;;;;;4977768;28;19976;-82
2022/07/23 18:13:42;;;;;;;;;;;27.50;85.70;;;;;;4977250;28;20013;-82